sensor_id;sensor_type;location;lat;lon;timestamp;P1;durP1;ratioP1;P2;durP2;ratioP2
16416;SDS011;8317;52.186;5.688;2023-12-04T00:00:34;19.63;;;7.90;;
16416;SDS011;8317;52.186;5.688;2023-12-04T00:03:01;18.97;;;8.03;;
16416;SDS011;8317;52.186;5.688;2023-12-04T00:05:28;15.37;;;7.87;;
16416;SDS011;8317;52.186;5.688;2023-12-04T00:07:55;17.77;;;8.43;;
16416;SDS011;8317;52.186;5.688;2023-12-04T00:10:22;15.17;;;9.57;;
16416;SDS011;8317;52.186;5.688;2023-12-04T00:12:49;14.30;;;8.20;;
16416;SDS011;8317;52.186;5.688;2023-12-04T00:15:18;17.10;;;9.53;;
16416;SDS011;8317;52.186;5.688;2023-12-04T00:17:45;23.07;;;9.90;;
16416;SDS011;8317;52.186;5.688;2023-12-04T00:20:12;17.93;;;9.97;;
16416;SDS011;8317;52.186;5.688;2023-12-04T00:22:39;21.47;;;9.83;;
16416;SDS011;8317;52.186;5.688;2023-12-04T00:25:07;26.40;;;11.00;;
16416;SDS011;8317;52.186;5.688;2023-12-04T00:27:34;16.87;;;8.93;;
16416;SDS011;8317;52.186;5.688;2023-12-04T00:30:01;23.23;;;9.57;;
16416;SDS011;8317;52.186;5.688;2023-12-04T00:32:30;19.97;;;8.80;;
16416;SDS011;8317;52.186;5.688;2023-12-04T00:34:57;20.97;;;9.63;;
16416;SDS011;8317;52.186;5.688;2023-12-04T00:37:25;20.60;;;9.43;;
16416;SDS011;8317;52.186;5.688;2023-12-04T00:39:53;21.90;;;9.67;;
16416;SDS011;8317;52.186;5.688;2023-12-04T00:42:20;13.83;;;8.97;;
16416;SDS011;8317;52.186;5.688;2023-12-04T00:44:47;24.30;;;9.70;;
16416;SDS011;8317;52.186;5.688;2023-12-04T00:47:13;17.77;;;7.60;;
16416;SDS011;8317;52.186;5.688;2023-12-04T00:49:42;19.27;;;8.63;;
16416;SDS011;8317;52.186;5.688;2023-12-04T00:52:08;19.63;;;9.20;;
16416;SDS011;8317;52.186;5.688;2023-12-04T00:54:38;28.23;;;9.33;;
16416;SDS011;8317;52.186;5.688;2023-12-04T00:57:05;16.57;;;8.83;;
16416;SDS011;8317;52.186;5.688;2023-12-04T00:59:32;22.07;;;8.17;;
16416;SDS011;8317;52.186;5.688;2023-12-04T01:01:59;22.10;;;9.37;;
16416;SDS011;8317;52.186;5.688;2023-12-04T01:04:26;20.87;;;8.57;;
16416;SDS011;8317;52.186;5.688;2023-12-04T01:06:54;27.87;;;12.30;;
16416;SDS011;8317;52.186;5.688;2023-12-04T01:09:21;17.23;;;8.63;;
16416;SDS011;8317;52.186;5.688;2023-12-04T01:11:49;21.93;;;8.70;;
16416;SDS011;8317;52.186;5.688;2023-12-04T01:14:16;22.60;;;10.47;;
16416;SDS011;8317;52.186;5.688;2023-12-04T01:16:43;20.33;;;8.57;;
16416;SDS011;8317;52.186;5.688;2023-12-04T01:19:10;23.23;;;8.73;;
16416;SDS011;8317;52.186;5.688;2023-12-04T01:21:37;24.33;;;9.77;;
16416;SDS011;8317;52.186;5.688;2023-12-04T01:24:05;13.40;;;7.83;;
16416;SDS011;8317;52.186;5.688;2023-12-04T01:26:32;21.77;;;10.50;;
16416;SDS011;8317;52.186;5.688;2023-12-04T01:28:59;31.50;;;9.90;;
16416;SDS011;8317;52.186;5.688;2023-12-04T01:31:26;20.60;;;10.50;;
16416;SDS011;8317;52.186;5.688;2023-12-04T01:33:53;24.20;;;9.63;;
16416;SDS011;8317;52.186;5.688;2023-12-04T01:36:19;19.07;;;8.43;;
16416;SDS011;8317;52.186;5.688;2023-12-04T01:38:46;21.27;;;9.83;;
16416;SDS011;8317;52.186;5.688;2023-12-04T01:41:15;17.50;;;8.53;;
16416;SDS011;8317;52.186;5.688;2023-12-04T01:43:41;18.63;;;10.63;;
16416;SDS011;8317;52.186;5.688;2023-12-04T01:46:08;22.77;;;8.40;;
16416;SDS011;8317;52.186;5.688;2023-12-04T01:48:36;22.97;;;7.43;;
16416;SDS011;8317;52.186;5.688;2023-12-04T01:51:05;21.23;;;8.53;;
16416;SDS011;8317;52.186;5.688;2023-12-04T01:53:34;21.07;;;10.57;;
16416;SDS011;8317;52.186;5.688;2023-12-04T01:56:02;17.80;;;8.23;;
16416;SDS011;8317;52.186;5.688;2023-12-04T01:58:31;19.53;;;9.37;;
16416;SDS011;8317;52.186;5.688;2023-12-04T02:00:58;24.73;;;10.13;;
16416;SDS011;8317;52.186;5.688;2023-12-04T02:03:25;20.17;;;10.60;;
16416;SDS011;8317;52.186;5.688;2023-12-04T02:05:52;18.10;;;8.70;;
16416;SDS011;8317;52.186;5.688;2023-12-04T02:08:20;17.93;;;9.50;;
16416;SDS011;8317;52.186;5.688;2023-12-04T02:10:48;13.03;;;7.47;;
16416;SDS011;8317;52.186;5.688;2023-12-04T02:13:15;25.60;;;8.37;;
16416;SDS011;8317;52.186;5.688;2023-12-04T02:15:43;19.80;;;10.13;;
16416;SDS011;8317;52.186;5.688;2023-12-04T02:18:11;21.83;;;10.47;;
16416;SDS011;8317;52.186;5.688;2023-12-04T02:20:38;12.93;;;8.67;;
16416;SDS011;8317;52.186;5.688;2023-12-04T02:23:05;18.03;;;8.17;;
16416;SDS011;8317;52.186;5.688;2023-12-04T02:25:34;17.17;;;7.87;;
16416;SDS011;8317;52.186;5.688;2023-12-04T02:28:01;16.07;;;10.10;;
16416;SDS011;8317;52.186;5.688;2023-12-04T02:30:31;20.13;;;8.67;;
16416;SDS011;8317;52.186;5.688;2023-12-04T02:33:03;26.20;;;8.17;;
16416;SDS011;8317;52.186;5.688;2023-12-04T02:35:32;19.90;;;9.30;;
16416;SDS011;8317;52.186;5.688;2023-12-04T02:38:00;22.40;;;7.50;;
16416;SDS011;8317;52.186;5.688;2023-12-04T02:40:28;20.10;;;8.40;;
16416;SDS011;8317;52.186;5.688;2023-12-04T02:42:57;16.83;;;8.27;;
16416;SDS011;8317;52.186;5.688;2023-12-04T02:45:24;20.60;;;8.23;;
16416;SDS011;8317;52.186;5.688;2023-12-04T02:47:51;20.70;;;8.83;;
16416;SDS011;8317;52.186;5.688;2023-12-04T02:50:18;17.87;;;7.43;;
16416;SDS011;8317;52.186;5.688;2023-12-04T02:52:44;22.50;;;7.97;;
16416;SDS011;8317;52.186;5.688;2023-12-04T02:55:11;25.87;;;8.77;;
16416;SDS011;8317;52.186;5.688;2023-12-04T02:57:38;16.47;;;7.90;;
16416;SDS011;8317;52.186;5.688;2023-12-04T03:00:07;10.83;;;7.07;;
16416;SDS011;8317;52.186;5.688;2023-12-04T03:02:35;18.03;;;8.43;;
16416;SDS011;8317;52.186;5.688;2023-12-04T03:05:02;20.03;;;8.90;;
16416;SDS011;8317;52.186;5.688;2023-12-04T03:07:29;10.40;;;6.83;;
16416;SDS011;8317;52.186;5.688;2023-12-04T03:09:57;18.93;;;8.93;;
16416;SDS011;8317;52.186;5.688;2023-12-04T03:12:23;18.07;;;8.23;;
16416;SDS011;8317;52.186;5.688;2023-12-04T03:14:50;23.07;;;9.50;;
16416;SDS011;8317;52.186;5.688;2023-12-04T03:17:18;14.53;;;7.23;;
16416;SDS011;8317;52.186;5.688;2023-12-04T03:19:45;18.17;;;7.40;;
16416;SDS011;8317;52.186;5.688;2023-12-04T03:22:12;11.63;;;7.23;;
16416;SDS011;8317;52.186;5.688;2023-12-04T03:24:39;12.87;;;7.03;;
16416;SDS011;8317;52.186;5.688;2023-12-04T03:27:06;18.77;;;8.10;;
16416;SDS011;8317;52.186;5.688;2023-12-04T03:29:33;17.73;;;7.80;;
16416;SDS011;8317;52.186;5.688;2023-12-04T03:31:59;12.50;;;7.90;;
16416;SDS011;8317;52.186;5.688;2023-12-04T03:34:28;23.60;;;8.73;;
16416;SDS011;8317;52.186;5.688;2023-12-04T03:36:54;21.13;;;9.17;;
16416;SDS011;8317;52.186;5.688;2023-12-04T03:39:21;17.27;;;8.10;;
16416;SDS011;8317;52.186;5.688;2023-12-04T03:41:48;21.50;;;9.47;;
16416;SDS011;8317;52.186;5.688;2023-12-04T03:44:15;14.17;;;6.60;;
16416;SDS011;8317;52.186;5.688;2023-12-04T03:46:42;17.07;;;8.03;;
16416;SDS011;8317;52.186;5.688;2023-12-04T03:49:09;19.10;;;8.67;;
16416;SDS011;8317;52.186;5.688;2023-12-04T03:51:37;17.10;;;8.67;;
16416;SDS011;8317;52.186;5.688;2023-12-04T03:54:04;13.53;;;7.80;;
16416;SDS011;8317;52.186;5.688;2023-12-04T03:56:30;16.63;;;6.37;;
16416;SDS011;8317;52.186;5.688;2023-12-04T03:58:57;27.90;;;8.53;;
16416;SDS011;8317;52.186;5.688;2023-12-04T04:01:24;13.17;;;7.17;;
16416;SDS011;8317;52.186;5.688;2023-12-04T04:03:51;18.60;;;7.80;;
16416;SDS011;8317;52.186;5.688;2023-12-04T04:06:18;13.97;;;7.43;;
16416;SDS011;8317;52.186;5.688;2023-12-04T04:08:46;17.27;;;9.33;;
16416;SDS011;8317;52.186;5.688;2023-12-04T04:11:13;14.93;;;6.30;;
16416;SDS011;8317;52.186;5.688;2023-12-04T04:13:40;18.70;;;7.50;;
16416;SDS011;8317;52.186;5.688;2023-12-04T04:16:07;23.47;;;9.07;;
16416;SDS011;8317;52.186;5.688;2023-12-04T04:18:38;18.57;;;7.93;;
16416;SDS011;8317;52.186;5.688;2023-12-04T04:21:05;12.93;;;6.67;;
16416;SDS011;8317;52.186;5.688;2023-12-04T04:23:32;11.13;;;6.03;;
16416;SDS011;8317;52.186;5.688;2023-12-04T04:26:00;7.57;;;6.17;;
16416;SDS011;8317;52.186;5.688;2023-12-04T04:28:27;13.10;;;5.87;;
16416;SDS011;8317;52.186;5.688;2023-12-04T04:30:54;12.90;;;6.77;;
16416;SDS011;8317;52.186;5.688;2023-12-04T04:33:21;17.40;;;7.27;;
16416;SDS011;8317;52.186;5.688;2023-12-04T04:35:48;12.77;;;6.70;;
16416;SDS011;8317;52.186;5.688;2023-12-04T04:38:15;14.70;;;7.13;;
16416;SDS011;8317;52.186;5.688;2023-12-04T04:40:42;10.37;;;6.47;;
16416;SDS011;8317;52.186;5.688;2023-12-04T04:43:11;13.50;;;7.23;;
16416;SDS011;8317;52.186;5.688;2023-12-04T04:45:38;16.63;;;7.03;;
16416;SDS011;8317;52.186;5.688;2023-12-04T04:48:05;13.03;;;5.93;;
16416;SDS011;8317;52.186;5.688;2023-12-04T04:50:31;12.93;;;7.90;;
16416;SDS011;8317;52.186;5.688;2023-12-04T04:52:58;11.20;;;6.47;;
16416;SDS011;8317;52.186;5.688;2023-12-04T04:55:25;12.67;;;7.53;;
16416;SDS011;8317;52.186;5.688;2023-12-04T04:57:52;17.50;;;8.07;;
16416;SDS011;8317;52.186;5.688;2023-12-04T05:00:21;20.20;;;6.30;;
16416;SDS011;8317;52.186;5.688;2023-12-04T05:02:47;11.40;;;6.90;;
16416;SDS011;8317;52.186;5.688;2023-12-04T05:05:14;11.03;;;6.03;;
16416;SDS011;8317;52.186;5.688;2023-12-04T05:07:41;15.90;;;6.27;;
16416;SDS011;8317;52.186;5.688;2023-12-04T05:10:08;9.17;;;5.50;;
16416;SDS011;8317;52.186;5.688;2023-12-04T05:12:35;13.73;;;6.00;;
16416;SDS011;8317;52.186;5.688;2023-12-04T05:15:02;13.70;;;6.33;;
16416;SDS011;8317;52.186;5.688;2023-12-04T05:17:31;15.80;;;8.03;;
16416;SDS011;8317;52.186;5.688;2023-12-04T05:19:58;14.70;;;6.17;;
16416;SDS011;8317;52.186;5.688;2023-12-04T05:22:25;11.47;;;5.47;;
16416;SDS011;8317;52.186;5.688;2023-12-04T05:24:52;10.67;;;6.47;;
16416;SDS011;8317;52.186;5.688;2023-12-04T05:27:19;15.50;;;6.63;;
16416;SDS011;8317;52.186;5.688;2023-12-04T05:29:46;18.97;;;7.27;;
16416;SDS011;8317;52.186;5.688;2023-12-04T05:32:12;7.20;;;5.57;;
16416;SDS011;8317;52.186;5.688;2023-12-04T05:34:41;7.43;;;4.70;;
16416;SDS011;8317;52.186;5.688;2023-12-04T05:37:08;15.23;;;8.07;;
16416;SDS011;8317;52.186;5.688;2023-12-04T05:39:35;17.13;;;8.47;;
16416;SDS011;8317;52.186;5.688;2023-12-04T05:42:02;9.43;;;5.80;;
16416;SDS011;8317;52.186;5.688;2023-12-04T05:44:30;8.87;;;5.10;;
16416;SDS011;8317;52.186;5.688;2023-12-04T05:46:57;16.50;;;6.43;;
16416;SDS011;8317;52.186;5.688;2023-12-04T05:49:23;10.87;;;6.77;;
16416;SDS011;8317;52.186;5.688;2023-12-04T05:51:52;9.90;;;5.43;;
16416;SDS011;8317;52.186;5.688;2023-12-04T05:54:18;10.57;;;5.40;;
16416;SDS011;8317;52.186;5.688;2023-12-04T05:56:45;9.33;;;6.00;;
16416;SDS011;8317;52.186;5.688;2023-12-04T05:59:12;9.20;;;6.03;;
16416;SDS011;8317;52.186;5.688;2023-12-04T06:01:39;10.73;;;7.53;;
16416;SDS011;8317;52.186;5.688;2023-12-04T06:04:06;5.83;;;5.23;;
16416;SDS011;8317;52.186;5.688;2023-12-04T06:06:33;10.37;;;6.07;;
16416;SDS011;8317;52.186;5.688;2023-12-04T06:09:01;14.03;;;5.50;;
16416;SDS011;8317;52.186;5.688;2023-12-04T06:11:28;8.70;;;5.80;;
16416;SDS011;8317;52.186;5.688;2023-12-04T06:13:55;12.70;;;6.43;;
16416;SDS011;8317;52.186;5.688;2023-12-04T06:16:22;8.30;;;5.47;;
16416;SDS011;8317;52.186;5.688;2023-12-04T06:18:49;13.73;;;6.10;;
16416;SDS011;8317;52.186;5.688;2023-12-04T06:21:17;11.53;;;5.10;;
16416;SDS011;8317;52.186;5.688;2023-12-04T06:23:44;10.50;;;6.83;;
16416;SDS011;8317;52.186;5.688;2023-12-04T06:26:13;8.07;;;5.23;;
16416;SDS011;8317;52.186;5.688;2023-12-04T06:28:42;11.60;;;5.47;;
16416;SDS011;8317;52.186;5.688;2023-12-04T06:31:10;6.07;;;4.30;;
16416;SDS011;8317;52.186;5.688;2023-12-04T06:33:38;11.27;;;4.63;;
16416;SDS011;8317;52.186;5.688;2023-12-04T06:36:06;8.23;;;6.17;;
16416;SDS011;8317;52.186;5.688;2023-12-04T06:38:33;11.67;;;6.33;;
16416;SDS011;8317;52.186;5.688;2023-12-04T06:41:06;10.27;;;5.53;;
16416;SDS011;8317;52.186;5.688;2023-12-04T06:43:36;11.30;;;5.77;;
16416;SDS011;8317;52.186;5.688;2023-12-04T06:46:04;8.57;;;6.00;;
16416;SDS011;8317;52.186;5.688;2023-12-04T06:48:32;14.13;;;5.17;;
16416;SDS011;8317;52.186;5.688;2023-12-04T06:50:59;10.30;;;4.53;;
16416;SDS011;8317;52.186;5.688;2023-12-04T06:53:26;12.10;;;5.80;;
16416;SDS011;8317;52.186;5.688;2023-12-04T06:55:53;9.77;;;5.37;;
16416;SDS011;8317;52.186;5.688;2023-12-04T06:58:20;6.57;;;4.23;;
16416;SDS011;8317;52.186;5.688;2023-12-04T07:00:48;12.10;;;5.73;;
16416;SDS011;8317;52.186;5.688;2023-12-04T07:03:15;9.50;;;4.33;;
16416;SDS011;8317;52.186;5.688;2023-12-04T07:05:42;9.77;;;4.43;;
16416;SDS011;8317;52.186;5.688;2023-12-04T07:08:09;7.70;;;3.87;;
16416;SDS011;8317;52.186;5.688;2023-12-04T07:10:36;13.57;;;4.30;;
16416;SDS011;8317;52.186;5.688;2023-12-04T07:13:03;9.00;;;4.90;;
16416;SDS011;8317;52.186;5.688;2023-12-04T07:15:30;6.13;;;4.53;;
16416;SDS011;8317;52.186;5.688;2023-12-04T07:17:58;7.30;;;5.17;;
16416;SDS011;8317;52.186;5.688;2023-12-04T07:20:25;9.17;;;4.80;;
16416;SDS011;8317;52.186;5.688;2023-12-04T07:22:52;9.70;;;5.53;;
16416;SDS011;8317;52.186;5.688;2023-12-04T07:25:18;7.40;;;4.33;;
16416;SDS011;8317;52.186;5.688;2023-12-04T07:27:45;6.17;;;5.20;;
16416;SDS011;8317;52.186;5.688;2023-12-04T07:30:12;8.77;;;4.60;;
16416;SDS011;8317;52.186;5.688;2023-12-04T07:32:40;9.77;;;6.17;;
16416;SDS011;8317;52.186;5.688;2023-12-04T07:35:08;14.27;;;5.17;;
16416;SDS011;8317;52.186;5.688;2023-12-04T07:37:35;7.30;;;4.10;;
16416;SDS011;8317;52.186;5.688;2023-12-04T07:40:02;10.77;;;4.90;;
16416;SDS011;8317;52.186;5.688;2023-12-04T07:42:33;9.53;;;4.63;;
16416;SDS011;8317;52.186;5.688;2023-12-04T07:45:00;9.23;;;4.70;;
16416;SDS011;8317;52.186;5.688;2023-12-04T07:47:26;10.23;;;5.17;;
16416;SDS011;8317;52.186;5.688;2023-12-04T07:49:53;10.63;;;4.80;;
16416;SDS011;8317;52.186;5.688;2023-12-04T07:52:21;8.57;;;4.73;;
16416;SDS011;8317;52.186;5.688;2023-12-04T07:54:48;6.57;;;5.73;;
16416;SDS011;8317;52.186;5.688;2023-12-04T07:57:15;6.73;;;4.50;;
16416;SDS011;8317;52.186;5.688;2023-12-04T07:59:42;7.20;;;5.00;;
16416;SDS011;8317;52.186;5.688;2023-12-04T08:02:09;9.47;;;6.30;;
16416;SDS011;8317;52.186;5.688;2023-12-04T08:04:36;15.07;;;6.77;;
16416;SDS011;8317;52.186;5.688;2023-12-04T08:07:03;7.93;;;4.37;;
16416;SDS011;8317;52.186;5.688;2023-12-04T08:09:31;11.57;;;5.80;;
16416;SDS011;8317;52.186;5.688;2023-12-04T08:11:58;10.43;;;5.37;;
16416;SDS011;8317;52.186;5.688;2023-12-04T08:14:25;9.03;;;4.33;;
16416;SDS011;8317;52.186;5.688;2023-12-04T08:16:53;10.27;;;4.80;;
16416;SDS011;8317;52.186;5.688;2023-12-04T08:19:20;15.30;;;6.03;;
16416;SDS011;8317;52.186;5.688;2023-12-04T08:21:47;12.17;;;4.23;;
16416;SDS011;8317;52.186;5.688;2023-12-04T08:24:14;14.47;;;6.83;;
16416;SDS011;8317;52.186;5.688;2023-12-04T08:26:45;10.80;;;5.07;;
16416;SDS011;8317;52.186;5.688;2023-12-04T08:29:11;6.47;;;4.37;;
16416;SDS011;8317;52.186;5.688;2023-12-04T08:31:38;11.10;;;5.93;;
16416;SDS011;8317;52.186;5.688;2023-12-04T08:34:05;12.20;;;5.30;;
16416;SDS011;8317;52.186;5.688;2023-12-04T08:36:32;8.93;;;4.67;;
16416;SDS011;8317;52.186;5.688;2023-12-04T08:38:59;10.87;;;7.30;;
16416;SDS011;8317;52.186;5.688;2023-12-04T08:41:26;14.83;;;6.33;;
16416;SDS011;8317;52.186;5.688;2023-12-04T08:43:55;10.27;;;4.33;;
16416;SDS011;8317;52.186;5.688;2023-12-04T08:46:22;17.20;;;8.77;;
16416;SDS011;8317;52.186;5.688;2023-12-04T08:48:49;12.77;;;6.77;;
16416;SDS011;8317;52.186;5.688;2023-12-04T08:51:15;13.03;;;6.97;;
16416;SDS011;8317;52.186;5.688;2023-12-04T08:53:43;19.47;;;7.67;;
16416;SDS011;8317;52.186;5.688;2023-12-04T08:56:10;11.40;;;6.50;;
16416;SDS011;8317;52.186;5.688;2023-12-04T08:58:37;14.93;;;6.37;;
16416;SDS011;8317;52.186;5.688;2023-12-04T09:01:06;16.73;;;7.07;;
16416;SDS011;8317;52.186;5.688;2023-12-04T09:03:33;20.37;;;7.97;;
16416;SDS011;8317;52.186;5.688;2023-12-04T09:06:00;14.80;;;6.97;;
16416;SDS011;8317;52.186;5.688;2023-12-04T09:08:27;8.47;;;4.30;;
16416;SDS011;8317;52.186;5.688;2023-12-04T09:10:54;8.47;;;4.30;;
16416;SDS011;8317;52.186;5.688;2023-12-04T09:13:22;8.67;;;4.90;;
16416;SDS011;8317;52.186;5.688;2023-12-04T09:15:49;13.43;;;5.63;;
16416;SDS011;8317;52.186;5.688;2023-12-04T09:18:18;9.23;;;5.00;;
16416;SDS011;8317;52.186;5.688;2023-12-04T09:20:45;7.60;;;4.77;;
16416;SDS011;8317;52.186;5.688;2023-12-04T09:23:11;9.93;;;4.07;;
16416;SDS011;8317;52.186;5.688;2023-12-04T09:25:38;9.87;;;5.70;;
16416;SDS011;8317;52.186;5.688;2023-12-04T09:28:05;7.00;;;4.63;;
16416;SDS011;8317;52.186;5.688;2023-12-04T09:30:33;6.37;;;4.27;;
16416;SDS011;8317;52.186;5.688;2023-12-04T09:33:02;8.10;;;5.10;;
16416;SDS011;8317;52.186;5.688;2023-12-04T09:35:30;6.33;;;3.83;;
16416;SDS011;8317;52.186;5.688;2023-12-04T09:37:57;9.47;;;4.20;;
16416;SDS011;8317;52.186;5.688;2023-12-04T09:40:24;12.93;;;6.10;;
16416;SDS011;8317;52.186;5.688;2023-12-04T09:42:51;11.53;;;5.57;;
16416;SDS011;8317;52.186;5.688;2023-12-04T09:45:18;5.73;;;3.70;;
16416;SDS011;8317;52.186;5.688;2023-12-04T09:47:47;8.13;;;3.60;;
16416;SDS011;8317;52.186;5.688;2023-12-04T09:50:15;12.13;;;6.40;;
16416;SDS011;8317;52.186;5.688;2023-12-04T09:52:47;9.50;;;5.93;;
16416;SDS011;8317;52.186;5.688;2023-12-04T09:55:15;10.17;;;5.60;;
16416;SDS011;8317;52.186;5.688;2023-12-04T09:57:42;7.53;;;3.87;;
16416;SDS011;8317;52.186;5.688;2023-12-04T10:00:10;9.37;;;4.97;;
16416;SDS011;8317;52.186;5.688;2023-12-04T10:02:39;8.37;;;3.93;;
16416;SDS011;8317;52.186;5.688;2023-12-04T10:05:07;9.00;;;4.10;;
16416;SDS011;8317;52.186;5.688;2023-12-04T10:07:34;6.30;;;3.83;;
16416;SDS011;8317;52.186;5.688;2023-12-04T10:10:02;14.87;;;4.17;;
16416;SDS011;8317;52.186;5.688;2023-12-04T10:12:30;7.70;;;4.27;;
16416;SDS011;8317;52.186;5.688;2023-12-04T10:15:05;7.53;;;3.87;;
16416;SDS011;8317;52.186;5.688;2023-12-04T10:17:33;8.10;;;3.70;;
16416;SDS011;8317;52.186;5.688;2023-12-04T10:20:06;9.17;;;4.90;;
16416;SDS011;8317;52.186;5.688;2023-12-04T10:22:37;9.40;;;4.60;;
16416;SDS011;8317;52.186;5.688;2023-12-04T10:25:15;8.57;;;4.90;;
16416;SDS011;8317;52.186;5.688;2023-12-04T10:27:43;8.80;;;4.97;;
16416;SDS011;8317;52.186;5.688;2023-12-04T10:30:10;6.37;;;3.57;;
16416;SDS011;8317;52.186;5.688;2023-12-04T10:32:49;7.03;;;3.87;;
16416;SDS011;8317;52.186;5.688;2023-12-04T10:35:19;8.57;;;4.50;;
16416;SDS011;8317;52.186;5.688;2023-12-04T10:37:47;7.13;;;3.33;;
16416;SDS011;8317;52.186;5.688;2023-12-04T10:40:23;6.27;;;4.00;;
16416;SDS011;8317;52.186;5.688;2023-12-04T10:42:51;7.70;;;4.43;;
16416;SDS011;8317;52.186;5.688;2023-12-04T10:45:35;9.67;;;3.77;;
16416;SDS011;8317;52.186;5.688;2023-12-04T10:48:03;8.97;;;4.17;;
16416;SDS011;8317;52.186;5.688;2023-12-04T10:50:31;4.90;;;3.27;;
16416;SDS011;8317;52.186;5.688;2023-12-04T10:52:59;9.90;;;5.40;;
16416;SDS011;8317;52.186;5.688;2023-12-04T10:55:30;4.40;;;3.67;;
16416;SDS011;8317;52.186;5.688;2023-12-04T10:57:58;8.10;;;4.47;;
16416;SDS011;8317;52.186;5.688;2023-12-04T11:00:26;8.40;;;4.93;;
16416;SDS011;8317;52.186;5.688;2023-12-04T11:02:56;8.43;;;4.63;;
16416;SDS011;8317;52.186;5.688;2023-12-04T11:05:29;6.63;;;4.20;;
16416;SDS011;8317;52.186;5.688;2023-12-04T11:08:00;10.10;;;4.90;;
16416;SDS011;8317;52.186;5.688;2023-12-04T11:10:31;10.73;;;4.93;;
16416;SDS011;8317;52.186;5.688;2023-12-04T11:13:05;8.77;;;5.27;;
16416;SDS011;8317;52.186;5.688;2023-12-04T11:15:35;12.83;;;6.20;;
16416;SDS011;8317;52.186;5.688;2023-12-04T11:18:06;7.50;;;4.90;;
16416;SDS011;8317;52.186;5.688;2023-12-04T11:20:36;9.70;;;4.03;;
16416;SDS011;8317;52.186;5.688;2023-12-04T11:23:12;8.37;;;4.43;;
16416;SDS011;8317;52.186;5.688;2023-12-04T11:25:42;9.93;;;4.83;;
16416;SDS011;8317;52.186;5.688;2023-12-04T11:28:10;9.30;;;4.70;;
16416;SDS011;8317;52.186;5.688;2023-12-04T11:30:38;8.03;;;4.33;;
16416;SDS011;8317;52.186;5.688;2023-12-04T11:33:06;5.37;;;3.70;;
16416;SDS011;8317;52.186;5.688;2023-12-04T11:35:33;6.63;;;4.23;;
16416;SDS011;8317;52.186;5.688;2023-12-04T11:38:00;7.30;;;4.17;;
16416;SDS011;8317;52.186;5.688;2023-12-04T11:40:27;9.03;;;5.10;;
16416;SDS011;8317;52.186;5.688;2023-12-04T11:42:55;8.43;;;4.50;;
16416;SDS011;8317;52.186;5.688;2023-12-04T11:45:22;9.20;;;4.40;;
16416;SDS011;8317;52.186;5.688;2023-12-04T11:47:50;6.50;;;4.40;;
16416;SDS011;8317;52.186;5.688;2023-12-04T11:50:21;8.57;;;4.60;;
16416;SDS011;8317;52.186;5.688;2023-12-04T11:52:50;4.50;;;3.63;;
16416;SDS011;8317;52.186;5.688;2023-12-04T11:55:17;8.43;;;4.93;;
16416;SDS011;8317;52.186;5.688;2023-12-04T11:57:47;6.57;;;3.63;;
16416;SDS011;8317;52.186;5.688;2023-12-04T12:00:21;5.03;;;3.53;;
16416;SDS011;8317;52.186;5.688;2023-12-04T12:03:02;8.40;;;5.33;;
16416;SDS011;8317;52.186;5.688;2023-12-04T12:05:31;5.87;;;4.03;;
16416;SDS011;8317;52.186;5.688;2023-12-04T12:08:03;8.43;;;3.83;;
16416;SDS011;8317;52.186;5.688;2023-12-04T12:10:30;12.70;;;3.77;;
16416;SDS011;8317;52.186;5.688;2023-12-04T12:12:58;11.53;;;3.90;;
16416;SDS011;8317;52.186;5.688;2023-12-04T12:15:28;14.63;;;6.53;;
16416;SDS011;8317;52.186;5.688;2023-12-04T12:17:55;6.67;;;4.17;;
16416;SDS011;8317;52.186;5.688;2023-12-04T12:20:22;11.10;;;5.30;;
16416;SDS011;8317;52.186;5.688;2023-12-04T12:22:49;14.30;;;5.90;;
16416;SDS011;8317;52.186;5.688;2023-12-04T12:25:16;6.37;;;4.13;;
16416;SDS011;8317;52.186;5.688;2023-12-04T12:27:44;14.27;;;6.07;;
16416;SDS011;8317;52.186;5.688;2023-12-04T12:30:11;16.77;;;5.90;;
16416;SDS011;8317;52.186;5.688;2023-12-04T12:32:40;16.00;;;6.50;;
16416;SDS011;8317;52.186;5.688;2023-12-04T12:35:07;11.40;;;4.67;;
16416;SDS011;8317;52.186;5.688;2023-12-04T12:37:34;12.27;;;4.30;;
16416;SDS011;8317;52.186;5.688;2023-12-04T12:40:00;18.07;;;5.67;;
16416;SDS011;8317;52.186;5.688;2023-12-04T12:42:29;6.43;;;4.33;;
16416;SDS011;8317;52.186;5.688;2023-12-04T12:44:59;12.37;;;5.00;;
16416;SDS011;8317;52.186;5.688;2023-12-04T12:47:27;14.70;;;4.60;;
16416;SDS011;8317;52.186;5.688;2023-12-04T12:49:56;22.83;;;7.50;;
16416;SDS011;8317;52.186;5.688;2023-12-04T12:52:23;7.40;;;5.07;;
16416;SDS011;8317;52.186;5.688;2023-12-04T12:54:51;6.07;;;3.90;;
16416;SDS011;8317;52.186;5.688;2023-12-04T12:57:18;7.80;;;4.27;;
16416;SDS011;8317;52.186;5.688;2023-12-04T12:59:46;8.57;;;4.57;;
16416;SDS011;8317;52.186;5.688;2023-12-04T13:02:13;8.73;;;3.67;;
16416;SDS011;8317;52.186;5.688;2023-12-04T13:04:41;18.30;;;7.07;;
16416;SDS011;8317;52.186;5.688;2023-12-04T13:07:10;4.83;;;3.87;;
16416;SDS011;8317;52.186;5.688;2023-12-04T13:09:37;6.97;;;4.87;;
16416;SDS011;8317;52.186;5.688;2023-12-04T13:12:05;9.93;;;4.90;;
16416;SDS011;8317;52.186;5.688;2023-12-04T13:14:33;6.57;;;4.23;;
16416;SDS011;8317;52.186;5.688;2023-12-04T13:17:00;6.90;;;4.13;;
16416;SDS011;8317;52.186;5.688;2023-12-04T13:19:27;10.80;;;5.07;;
16416;SDS011;8317;52.186;5.688;2023-12-04T13:21:56;11.40;;;4.33;;
16416;SDS011;8317;52.186;5.688;2023-12-04T13:24:24;6.20;;;4.23;;
16416;SDS011;8317;52.186;5.688;2023-12-04T13:26:52;9.00;;;4.43;;
16416;SDS011;8317;52.186;5.688;2023-12-04T13:29:19;6.67;;;3.87;;
16416;SDS011;8317;52.186;5.688;2023-12-04T13:31:48;10.77;;;4.80;;
16416;SDS011;8317;52.186;5.688;2023-12-04T13:34:15;9.77;;;4.90;;
16416;SDS011;8317;52.186;5.688;2023-12-04T13:36:42;13.60;;;4.50;;
16416;SDS011;8317;52.186;5.688;2023-12-04T13:39:09;5.43;;;3.37;;
16416;SDS011;8317;52.186;5.688;2023-12-04T13:41:43;8.30;;;5.43;;
16416;SDS011;8317;52.186;5.688;2023-12-04T13:44:31;8.83;;;4.17;;
16416;SDS011;8317;52.186;5.688;2023-12-04T13:46:58;8.67;;;4.73;;
16416;SDS011;8317;52.186;5.688;2023-12-04T13:49:25;10.93;;;4.80;;
16416;SDS011;8317;52.186;5.688;2023-12-04T13:51:52;5.97;;;3.43;;
16416;SDS011;8317;52.186;5.688;2023-12-04T13:54:20;8.27;;;4.27;;
16416;SDS011;8317;52.186;5.688;2023-12-04T13:56:54;6.37;;;4.67;;
16416;SDS011;8317;52.186;5.688;2023-12-04T13:59:23;11.53;;;4.50;;
16416;SDS011;8317;52.186;5.688;2023-12-04T14:01:51;10.93;;;4.20;;
16416;SDS011;8317;52.186;5.688;2023-12-04T14:04:21;5.33;;;3.40;;
16416;SDS011;8317;52.186;5.688;2023-12-04T14:06:49;9.73;;;4.53;;
16416;SDS011;8317;52.186;5.688;2023-12-04T14:09:15;12.63;;;5.17;;
16416;SDS011;8317;52.186;5.688;2023-12-04T14:11:43;5.30;;;3.90;;
16416;SDS011;8317;52.186;5.688;2023-12-04T14:14:12;7.17;;;4.20;;
16416;SDS011;8317;52.186;5.688;2023-12-04T14:16:39;6.87;;;4.20;;
16416;SDS011;8317;52.186;5.688;2023-12-04T14:19:07;7.77;;;4.30;;
16416;SDS011;8317;52.186;5.688;2023-12-04T14:21:34;8.07;;;4.47;;
16416;SDS011;8317;52.186;5.688;2023-12-04T14:24:01;5.23;;;4.03;;
16416;SDS011;8317;52.186;5.688;2023-12-04T14:26:27;9.77;;;4.17;;
16416;SDS011;8317;52.186;5.688;2023-12-04T14:28:54;6.63;;;3.83;;
16416;SDS011;8317;52.186;5.688;2023-12-04T14:31:24;6.37;;;4.30;;
16416;SDS011;8317;52.186;5.688;2023-12-04T14:33:51;7.13;;;3.23;;
16416;SDS011;8317;52.186;5.688;2023-12-04T14:36:18;6.63;;;3.73;;
16416;SDS011;8317;52.186;5.688;2023-12-04T14:38:45;12.60;;;4.13;;
16416;SDS011;8317;52.186;5.688;2023-12-04T14:41:12;6.27;;;4.00;;
16416;SDS011;8317;52.186;5.688;2023-12-04T14:43:39;8.93;;;5.00;;
16416;SDS011;8317;52.186;5.688;2023-12-04T14:46:07;8.63;;;4.30;;
16416;SDS011;8317;52.186;5.688;2023-12-04T14:48:37;8.60;;;5.10;;
16416;SDS011;8317;52.186;5.688;2023-12-04T14:51:05;5.93;;;3.93;;
16416;SDS011;8317;52.186;5.688;2023-12-04T14:53:33;8.03;;;3.77;;
16416;SDS011;8317;52.186;5.688;2023-12-04T14:56:09;8.23;;;4.20;;